createdAt,value
2022-09-27T00:02:19.887Z,97786.44
2022-09-27T00:04:47.639Z,97785.69
2022-09-27T00:07:15.338Z,97791.78
2022-09-27T00:09:44.454Z,97767.16
2022-09-27T00:12:12.041Z,97795.53
2022-09-27T00:14:40.765Z,97799.09
2022-09-27T00:17:08.558Z,97791.25
2022-09-27T00:19:36.245Z,97802.66
2022-09-27T00:22:03.825Z,97805.34
2022-09-27T00:24:32.809Z,97810.66
2022-09-27T00:27:01.719Z,97808.22
2022-09-27T00:29:30.583Z,97802.78
2022-09-27T00:31:58.150Z,97810.78
2022-09-27T00:34:31.805Z,97787.13
2022-09-27T00:36:59.442Z,97817.88
2022-09-27T00:39:27.217Z,97822.34
2022-09-27T00:41:54.837Z,97831.19
2022-09-27T00:44:59.293Z,97823.22
2022-09-27T00:47:31.528Z,97830.56
2022-09-27T00:50:00.780Z,97826.22
2022-09-27T00:52:30.594Z,97830.56
2022-09-27T00:54:59.580Z,97827.31
2022-09-27T00:57:27.339Z,97836.97
2022-09-27T00:59:56.114Z,97829.78
2022-09-27T01:02:23.754Z,97836.75
2022-09-27T01:04:53.401Z,97825.41
2022-09-27T01:07:21.109Z,97816.13
2022-09-27T01:09:49.289Z,97830.56
2022-09-27T01:12:19.774Z,97818.75
2022-09-27T01:14:56.757Z,97830.66
2022-09-27T01:17:31.389Z,97834.09
2022-09-27T01:20:45.258Z,97837.38
2022-09-27T01:23:34.614Z,97814.25
2022-09-27T01:26:10.889Z,97838.66
2022-09-27T01:28:46.452Z,97801.91
2022-09-27T01:31:18.225Z,97792.56
2022-09-27T01:33:47.468Z,97828.25
2022-09-27T01:36:20.788Z,97842.94
2022-09-27T01:38:56.411Z,97834.28
2022-09-27T01:41:28.993Z,97823.84
2022-09-27T01:43:58.674Z,97836.91
2022-09-27T01:46:28.903Z,97835.97
2022-09-27T01:48:56.879Z,97830.78
2022-09-27T01:51:26.425Z,97840.69
2022-09-27T01:53:55.526Z,97837.66
2022-09-27T01:56:25.320Z,97843.78
2022-09-27T01:58:57.728Z,97848.13
2022-09-27T02:01:25.841Z,97851.69
2022-09-27T02:03:54.918Z,97846.50
2022-09-27T02:06:23.687Z,97835.44
2022-09-27T02:08:52.750Z,97835.38
2022-09-27T02:11:20.461Z,97837.84
2022-09-27T02:13:50.833Z,97839.69
2022-09-27T02:16:24.226Z,97834.75
2022-09-27T02:18:57.882Z,97834.06
2022-09-27T02:21:27.215Z,97820.06
2022-09-27T02:23:57.204Z,97841.63
2022-09-27T02:26:27.757Z,97850.13
2022-09-27T02:28:58.040Z,97854.78
2022-09-27T02:31:25.811Z,97854.69
2022-09-27T02:33:57.070Z,97854.69
2022-09-27T02:36:24.919Z,97860.78
2022-09-27T02:38:52.621Z,97855.84
2022-09-27T02:41:20.999Z,97866.13
2022-09-27T02:43:53.088Z,97846.66
2022-09-27T02:46:36.533Z,97876.63
2022-09-27T02:49:11.969Z,97878.44
2022-09-27T02:51:44.932Z,97878.44
2022-09-27T02:54:17.884Z,97880.19
2022-09-27T02:56:49.851Z,97877.03
2022-09-27T02:59:20.916Z,97881.97
2022-09-27T03:01:51.894Z,97848.03
2022-09-27T03:04:23.430Z,97868.06
2022-09-27T03:06:51.232Z,97877.72
2022-09-27T03:09:19.798Z,97878.59
2022-09-27T03:11:47.523Z,97881.13
2022-09-27T03:14:15.134Z,97886.38
2022-09-27T03:16:43.854Z,97885.59
2022-09-27T03:19:11.834Z,97885.53
2022-09-27T03:21:40.948Z,97884.50
2022-09-27T03:24:08.681Z,97882.81
2022-09-27T03:26:36.396Z,97889.88
2022-09-27T03:29:04.011Z,97893.50
2022-09-27T03:31:32.003Z,97889.00
2022-09-27T03:33:59.721Z,97888.63
2022-09-27T03:36:27.397Z,97898.69
2022-09-27T03:38:56.461Z,97893.50
2022-09-27T03:41:24.104Z,97902.84
2022-09-27T03:43:51.890Z,97903.72
2022-09-27T03:46:19.572Z,97910.03
2022-09-27T03:48:47.208Z,97911.72
2022-09-27T03:51:14.809Z,97904.16
2022-09-27T03:53:42.841Z,97918.06
2022-09-27T03:56:11.916Z,97915.44
2022-09-27T03:58:39.476Z,97906.63
2022-09-27T04:01:07.201Z,97906.63
2022-09-27T04:03:36.064Z,97910.97
2022-09-27T04:06:03.859Z,97910.19
2022-09-27T04:08:31.783Z,97900.91
2022-09-27T04:10:59.433Z,97919.13
2022-09-27T04:13:28.355Z,97905.47
2022-09-27T04:15:56.113Z,97915.75
2022-09-27T04:18:23.749Z,97917.53
2022-09-27T04:20:51.420Z,97916.59
2022-09-27T04:23:20.630Z,97926.25
2022-09-27T04:25:48.403Z,97925.31
2022-09-27T04:28:16.518Z,97919.28
2022-09-27T04:30:46.472Z,97926.41
2022-09-27T04:33:14.283Z,97921.31
2022-09-27T04:35:59.705Z,97926.56
2022-09-27T04:38:27.413Z,97933.97
2022-09-27T04:40:55.205Z,97927.91
2022-09-27T04:43:22.868Z,97932.56
2022-09-27T04:45:51.952Z,97945.41
2022-09-27T04:48:19.571Z,97946.19
2022-09-27T04:50:47.167Z,97939.50
2022-09-27T04:53:29.625Z,97950.50
2022-09-27T04:58:26.108Z,97954.13
2022-09-27T05:00:55.803Z,97958.66
2022-09-27T05:03:23.613Z,97960.38
2022-09-27T05:05:51.310Z,97970.03
2022-09-27T05:08:19.142Z,97970.03
2022-09-27T05:10:47.193Z,97975.28
2022-09-27T05:13:15.009Z,97973.50
2022-09-27T05:15:42.645Z,97970.97
2022-09-27T05:18:11.720Z,97974.53
2022-09-27T05:20:39.818Z,97969.34
2022-09-27T05:23:07.473Z,97976.28
2022-09-27T05:25:35.442Z,97972.88
2022-09-27T05:28:03.453Z,97978.13
2022-09-27T05:30:31.119Z,97975.56
2022-09-27T05:32:58.715Z,97985.25
2022-09-27T05:35:28.261Z,97988.00
2022-09-27T05:37:56.094Z,97990.63
2022-09-27T05:40:42.083Z,97993.19
2022-09-27T05:43:10.364Z,97998.38
2022-09-27T05:45:38.375Z,97958.34
2022-09-27T05:48:06.104Z,98007.97
2022-09-27T05:50:35.263Z,98003.63
2022-09-27T05:53:02.861Z,98011.34
2022-09-27T05:55:30.702Z,98025.31
2022-09-27T05:57:59.325Z,98019.25
2022-09-27T06:00:27.101Z,98020.16
2022-09-27T06:02:56.189Z,98022.78
2022-09-27T06:05:24.213Z,98023.56
2022-09-27T06:07:53.462Z,98027.13
2022-09-27T06:10:21.089Z,98007.69
2022-09-27T06:12:50.269Z,98023.56
2022-09-27T06:15:18.017Z,98021.88
2022-09-27T06:17:45.774Z,98014.19
2022-09-27T06:20:14.532Z,98012.13
2022-09-27T06:22:42.303Z,98014.75
2022-09-27T06:25:11.943Z,98014.69
2022-09-27T06:27:39.672Z,98019.84
2022-09-27T06:30:08.347Z,98015.31
2022-09-27T06:32:36.640Z,98022.97
2022-09-27T06:35:06.034Z,98016.59
2022-09-27T06:37:34.648Z,98024.25
2022-09-27T06:40:09.226Z,98024.81
2022-09-27T06:42:38.813Z,98016.78
2022-09-27T06:45:07.578Z,98000.69
2022-09-27T06:47:36.697Z,98025.94
2022-09-27T06:50:05.900Z,98027.69
2022-09-27T06:52:33.575Z,98019.69
2022-09-27T06:55:01.206Z,98029.31
2022-09-27T06:57:46.285Z,98034.59
2022-09-27T07:00:24.690Z,98038.13
2022-09-27T07:02:52.288Z,98003.75
2022-09-27T07:05:20.008Z,98056.75
2022-09-27T07:07:47.843Z,98044.84
2022-09-27T07:10:17.183Z,98065.63
2022-09-27T07:12:47.425Z,98065.72
2022-09-27T07:15:18.103Z,98057.34
2022-09-27T07:17:47.428Z,98067.56
2022-09-27T07:20:15.660Z,98071.13
2022-09-27T07:22:44.068Z,98077.94
2022-09-27T07:25:11.948Z,98079.66
2022-09-27T07:27:41.252Z,98073.47
2022-09-27T07:30:10.311Z,98073.53
2022-09-27T07:32:39.334Z,98078.16
2022-09-27T07:35:08.134Z,98077.78
2022-09-27T07:37:36.188Z,98078.56
2022-09-27T07:40:08.672Z,98085.25
2022-09-27T07:42:37.858Z,98085.03
2022-09-27T07:45:09.242Z,98080.25
2022-09-27T07:47:37.497Z,98073.13
2022-09-27T07:50:07.128Z,98087.16
2022-09-27T07:52:40.173Z,98083.16
2022-09-27T07:55:08.941Z,98089.66
2022-09-27T07:57:36.597Z,98084.91
2022-09-27T08:00:05.996Z,98090.88
2022-09-27T08:02:33.738Z,98098.66
2022-09-27T08:05:01.523Z,98104.63
2022-09-27T08:07:31.247Z,98117.78
2022-09-27T08:10:00.051Z,98112.59
2022-09-27T08:12:27.759Z,98113.44
2022-09-27T08:14:58.524Z,98116.94
2022-09-27T08:17:26.439Z,98110.59
2022-09-27T08:19:54.003Z,98120.88
2022-09-27T08:22:22.161Z,98121.06
2022-09-27T08:24:51.119Z,98121.75
2022-09-27T08:27:18.949Z,98132.41
2022-09-27T08:29:47.800Z,98129.78
2022-09-27T08:32:18.338Z,98131.41
2022-09-27T08:34:49.867Z,98096.63
2022-09-27T08:37:17.541Z,98133.28
2022-09-27T08:39:47.975Z,98138.78
2022-09-27T08:42:21.108Z,98138.91
2022-09-27T08:44:51.137Z,98131.47
2022-09-27T08:47:19.427Z,98139.69
2022-09-27T08:52:32.710Z,98141.94
2022-09-27T08:55:02.636Z,98135.34
2022-09-27T08:57:31.623Z,98141.88
2022-09-27T09:00:02.742Z,98138.00
2022-09-27T09:02:30.427Z,98141.50
2022-09-27T09:05:00.114Z,98146.13
2022-09-27T09:07:36.922Z,98144.97
2022-09-27T09:10:07.722Z,98134.91
2022-09-27T09:12:48.676Z,98149.38
2022-09-27T09:15:24.179Z,98140.16
2022-09-27T09:18:20.309Z,98144.00
2022-09-27T09:20:56.233Z,98115.66
2022-09-27T09:23:50.171Z,98105.91
2022-09-27T09:26:20.564Z,98108.97
2022-09-27T09:28:57.056Z,98153.78
2022-09-27T09:31:27.709Z,98144.59
2022-09-27T09:33:56.415Z,98147.41
2022-09-27T09:36:26.360Z,98120.06
2022-09-27T09:38:55.738Z,98113.34
2022-09-27T09:41:25.961Z,98143.22
2022-09-27T09:43:56.865Z,98054.28
2022-09-27T09:46:25.729Z,98143.69
2022-09-27T09:48:56.148Z,98135.84
2022-09-27T09:51:38.376Z,98103.78
2022-09-27T09:54:07.914Z,98123.69
2022-09-27T09:56:36.710Z,98115.00
2022-09-27T09:59:07.732Z,97944.06
2022-09-27T10:01:36.796Z,98120.03
2022-09-27T10:04:04.484Z,98094.25
2022-09-27T10:06:32.409Z,98122.81
2022-09-27T10:09:00.537Z,98087.28
2022-09-27T10:11:33.051Z,98096.78
2022-09-27T10:14:00.788Z,98085.06
2022-09-27T10:16:29.917Z,98135.09
2022-09-27T10:19:00.646Z,98107.06
2022-09-27T10:21:30.219Z,98118.69
2022-09-27T10:24:17.335Z,98122.19
2022-09-27T10:26:47.235Z,98113.03
2022-09-27T10:29:24.732Z,98112.34
2022-09-27T10:31:53.726Z,98111.16
2022-09-27T10:34:26.218Z,98078.44
2022-09-27T10:37:05.052Z,98069.25
2022-09-27T10:39:32.634Z,98081.41
2022-09-27T10:42:00.169Z,98107.88
2022-09-27T10:44:29.281Z,98058.41
2022-09-27T10:46:59.885Z,98059.41
2022-09-27T10:49:29.110Z,98090.22
2022-09-27T10:51:59.923Z,98105.97
2022-09-27T10:54:28.679Z,98098.06
2022-09-27T10:57:00.334Z,98103.03
2022-09-27T10:59:30.626Z,98074.06
2022-09-27T11:01:59.742Z,98026.78
2022-09-27T11:04:30.967Z,98107.06
2022-09-27T11:07:08.946Z,98103.56
2022-09-27T11:09:46.661Z,98105.31
2022-09-27T11:12:14.449Z,98099.53
2022-09-27T11:14:42.221Z,98053.69
2022-09-27T11:17:17.238Z,98098.19
2022-09-27T11:19:54.058Z,98095.06
2022-09-27T11:22:28.922Z,98091.81
2022-09-27T11:25:02.890Z,98096.16
2022-09-27T11:27:36.686Z,98004.22
2022-09-27T11:30:08.427Z,98083.66
2022-09-27T11:32:55.091Z,98086.25
2022-09-27T11:35:32.794Z,98044.19
2022-09-27T11:38:04.145Z,98111.75
2022-09-27T11:40:34.784Z,98039.94
2022-09-27T11:43:11.693Z,98081.09
2022-09-27T11:46:14.262Z,98086.81
2022-09-27T11:48:46.349Z,98080.31
2022-09-27T11:51:37.610Z,98054.06
2022-09-27T11:54:19.010Z,98068.78
2022-09-27T11:56:51.072Z,98032.56
2022-09-27T12:00:07.895Z,98031.09
2022-09-27T12:02:47.896Z,98064.50
2022-09-27T12:05:21.556Z,98008.44
2022-09-27T12:07:58.957Z,98077.94
2022-09-27T12:10:26.568Z,97971.72
2022-09-27T12:12:56.956Z,98065.59
2022-09-27T12:15:26.379Z,98070.22
2022-09-27T12:17:56.850Z,98063.03
2022-09-27T12:20:29.787Z,98080.66
2022-09-27T12:23:00.605Z,98047.56
2022-09-27T12:25:31.142Z,98065.09
2022-09-27T12:28:12.103Z,98061.00
2022-09-27T12:30:41.280Z,98053.75
2022-09-27T12:33:18.705Z,98026.59
2022-09-27T12:35:50.038Z,98054.81
2022-09-27T12:38:20.211Z,98031.47
2022-09-27T12:40:50.581Z,98009.72
2022-09-27T12:43:20.291Z,98074.31
2022-09-27T12:46:00.984Z,98057.34
2022-09-27T12:48:31.156Z,98042.53
2022-09-27T12:51:03.154Z,98072.91
2022-09-27T12:53:32.326Z,98056.31
2022-09-27T12:56:33.086Z,98064.34
2022-09-27T12:59:22.308Z,98079.56
2022-09-27T13:02:05.849Z,98079.47
2022-09-27T13:04:43.528Z,98050.28
2022-09-27T13:07:19.273Z,98069.72
2022-09-27T13:10:02.443Z,98077.19
2022-09-27T13:12:30.417Z,98014.16
2022-09-27T13:15:02.029Z,98073.69
2022-09-27T13:17:49.949Z,98051.63
2022-09-27T13:20:48.919Z,98072.81
2022-09-27T13:24:00.060Z,98073.94
2022-09-27T13:26:48.585Z,98088.75
2022-09-27T13:29:24.919Z,98035.06
2022-09-27T13:32:23.562Z,98054.97
2022-09-27T13:34:53.338Z,98104.38
2022-09-27T13:37:38.734Z,98085.91
2022-09-27T13:40:28.572Z,98069.31
2022-09-27T13:43:26.949Z,98090.56
2022-09-27T13:45:56.314Z,98076.31
2022-09-27T13:48:27.700Z,98064.19
2022-09-27T13:50:57.988Z,98013.41
2022-09-27T13:53:29.104Z,98087.91
2022-09-27T13:56:02.985Z,98069.47
2022-09-27T13:58:49.198Z,98084.06
2022-09-27T14:01:20.955Z,98040.69
2022-09-27T14:03:49.396Z,98073.97
2022-09-27T14:06:18.628Z,98076.69
2022-09-27T14:08:47.467Z,98085.47
2022-09-27T14:11:16.628Z,98026.84
2022-09-27T14:13:45.862Z,98060.72
2022-09-27T14:16:15.739Z,98086.50
2022-09-27T14:18:44.634Z,98080.09
2022-09-27T14:21:18.211Z,98083.41
2022-09-27T14:23:46.138Z,98079.25
2022-09-27T14:26:23.045Z,98073.41
2022-09-27T14:28:52.351Z,98074.75
2022-09-27T14:31:22.905Z,98064.44
2022-09-27T14:33:50.883Z,98088.34
2022-09-27T14:36:44.323Z,98086.91
2022-09-27T14:39:17.432Z,98014.81
2022-09-27T14:41:45.256Z,98078.25
2022-09-27T14:44:20.449Z,98051.41
2022-09-27T14:46:51.754Z,98087.94
2022-09-27T14:49:20.511Z,98092.50
2022-09-27T14:51:54.952Z,98087.47
2022-09-27T14:54:26.130Z,98056.97
2022-09-27T14:56:54.745Z,98069.03
2022-09-27T14:59:27.898Z,98101.31
2022-09-27T15:01:55.508Z,98073.72
2022-09-27T15:04:23.474Z,98089.56
2022-09-27T15:06:51.370Z,98096.31
2022-09-27T15:09:19.016Z,98100.59
2022-09-27T15:11:55.777Z,97974.19
2022-09-27T15:14:25.227Z,98099.47
2022-09-27T15:16:53.112Z,98097.44
2022-09-27T15:19:24.260Z,98113.78
2022-09-27T15:21:51.946Z,98099.53
2022-09-27T15:24:38.856Z,98085.84
2022-09-27T15:27:07.254Z,98086.50
2022-09-27T15:29:37.130Z,97981.16
2022-09-27T15:32:06.697Z,98114.66
2022-09-27T15:34:38.496Z,98077.16
2022-09-27T15:37:07.457Z,98105.56
2022-09-27T15:39:36.972Z,98112.13
2022-09-27T15:42:08.916Z,98105.47
2022-09-27T15:44:45.696Z,98103.38
2022-09-27T15:47:50.796Z,98101.25
2022-09-27T15:50:41.111Z,98127.25
2022-09-27T15:53:09.417Z,98047.03
2022-09-27T15:55:40.718Z,98079.53
2022-09-27T15:58:09.273Z,98100.38
2022-09-27T16:00:38.554Z,98116.91
2022-09-27T16:03:06.248Z,98109.44
2022-09-27T16:05:34.134Z,98003.34
2022-09-27T16:08:02.472Z,98100.38
2022-09-27T16:10:31.673Z,98108.34
2022-09-27T16:12:59.261Z,98090.78
2022-09-27T16:15:26.869Z,98008.25
2022-09-27T16:17:57.679Z,98103.00
2022-09-27T16:20:27.145Z,98077.69
2022-09-27T16:22:55.665Z,98096.88
2022-09-27T16:25:24.496Z,98012.44
2022-09-27T16:27:52.475Z,98113.53
2022-09-27T16:30:20.984Z,98113.31
2022-09-27T16:32:49.238Z,98111.69
2022-09-27T16:35:20.297Z,98056.72
2022-09-27T16:37:48.137Z,98109.97
2022-09-27T16:40:23.329Z,98099.44
2022-09-27T16:42:51.503Z,98098.81
2022-09-27T16:45:19.956Z,98046.28
2022-09-27T16:47:49.218Z,97806.50
2022-09-27T16:50:41.465Z,98010.34
2022-09-27T16:53:10.600Z,98136.44
2022-09-27T16:55:40.903Z,97904.81
2022-09-27T16:58:10.175Z,98098.13
2022-09-27T17:00:39.041Z,97931.66
2022-09-27T17:03:07.043Z,97970.91
2022-09-27T17:05:37.184Z,98099.25
2022-09-27T17:08:05.555Z,98024.41
2022-09-27T17:10:38.507Z,98094.66
2022-09-27T17:20:37.437Z,98087.03
2022-09-27T17:23:06.447Z,98023.44
2022-09-27T17:25:39.308Z,97798.88
2022-09-27T17:28:15.616Z,97850.34
2022-09-27T17:31:11.933Z,97795.00
2022-09-27T17:36:48.531Z,97833.78
2022-09-27T17:39:18.711Z,97996.69
2022-09-27T17:41:48.632Z,98079.22
2022-09-27T17:44:28.035Z,97982.09
2022-09-27T17:47:36.045Z,98068.03
2022-09-27T17:50:30.536Z,98000.66
2022-09-27T17:53:19.625Z,97718.31
2022-09-27T17:55:47.992Z,98006.47
2022-09-27T17:58:18.188Z,97839.56
2022-09-27T18:00:59.221Z,97670.81
2022-09-27T18:03:31.595Z,97705.28
2022-09-27T18:06:00.729Z,97720.00
2022-09-27T18:09:00.720Z,97788.81
2022-09-27T18:11:29.413Z,97933.50
2022-09-27T18:14:00.327Z,97985.31
2022-09-27T18:16:32.570Z,97833.22
2022-09-27T18:19:00.775Z,97828.66
2022-09-27T18:21:28.814Z,97988.59
2022-09-27T18:23:58.574Z,98007.00
2022-09-27T18:26:29.081Z,97756.59
2022-09-27T18:29:01.779Z,97924.19
2022-09-27T18:31:29.846Z,97624.47
2022-09-27T18:33:57.771Z,98054.38
2022-09-27T18:36:26.327Z,97988.16
2022-09-27T18:38:54.919Z,97782.09
2022-09-27T18:41:25.360Z,97652.88
2022-09-27T18:43:56.870Z,98083.78
2022-09-27T18:46:40.505Z,98047.28
2022-09-27T18:49:09.293Z,97947.41
2022-09-27T18:51:37.751Z,98043.00
2022-09-27T18:54:06.737Z,98074.72
2022-09-27T18:56:39.331Z,97839.69
2022-09-27T18:59:08.650Z,97953.78
2022-09-27T19:01:39.645Z,97990.16
2022-09-27T19:04:08.202Z,97687.78
2022-09-27T19:06:36.398Z,98060.75
2022-09-27T19:09:05.732Z,98070.78
2022-09-27T19:11:35.101Z,98113.13
2022-09-27T19:14:02.871Z,97877.25
2022-09-27T19:16:31.175Z,97694.97
2022-09-27T19:19:03.581Z,97748.59
2022-09-27T19:21:31.869Z,97885.81
2022-09-27T19:23:59.846Z,97751.16
2022-09-27T19:26:29.952Z,98145.06
2022-09-27T19:28:59.880Z,97846.22
2022-09-27T19:31:29.552Z,97818.81
2022-09-27T19:34:01.133Z,98133.03
2022-09-27T19:36:32.154Z,97928.53
2022-09-27T19:39:02.149Z,97571.47
2022-09-27T19:41:30.289Z,97835.94
2022-09-27T19:43:59.831Z,97841.38
2022-09-27T19:46:28.250Z,98025.00
2022-09-27T19:48:57.063Z,97833.75
2022-09-27T19:51:26.026Z,97810.56
2022-09-27T19:53:54.213Z,97885.88
2022-09-27T19:56:22.858Z,98041.38
2022-09-27T19:58:52.096Z,97873.34
2022-09-27T20:01:23.664Z,97820.47
2022-09-27T20:03:55.932Z,97959.81
2022-09-27T20:06:27.499Z,97913.16
2022-09-27T20:08:59.022Z,97851.91
2022-09-27T20:11:36.211Z,97869.91
2022-09-27T20:14:07.280Z,98000.81
2022-09-27T20:16:41.507Z,97836.53
2022-09-27T20:19:31.235Z,97959.13
2022-09-27T20:22:03.326Z,97712.59
2022-09-27T20:24:32.412Z,97742.94
2022-09-27T20:27:31.319Z,97955.13
2022-09-27T20:30:04.323Z,97816.53
2022-09-27T20:32:35.331Z,97861.06
2022-09-27T20:35:11.711Z,97939.56
2022-09-27T20:37:40.181Z,98096.09
2022-09-27T20:40:18.731Z,97721.91
2022-09-27T20:43:03.379Z,97776.50
2022-09-27T20:45:41.673Z,97723.53
2022-09-27T20:48:18.817Z,97924.69
2022-09-27T20:50:54.171Z,98092.16
2022-09-27T20:53:27.847Z,97602.25
2022-09-27T20:55:56.295Z,97529.53
2022-09-27T20:58:24.499Z,97742.63
2022-09-27T21:00:53.777Z,97422.53
2022-09-27T21:03:26.840Z,97833.19
2022-09-27T21:05:56.100Z,97871.47
2022-09-27T21:08:24.910Z,97801.94
2022-09-27T21:10:54.120Z,97862.59
2022-09-27T21:13:22.505Z,97650.19
2022-09-27T21:15:55.557Z,97696.66
2022-09-27T21:18:25.112Z,97784.94
2022-09-27T21:20:58.827Z,97999.16
2022-09-27T21:23:26.756Z,97717.28
2022-09-27T21:26:05.520Z,97747.25
2022-09-27T21:28:38.702Z,97709.19
2022-09-27T21:31:07.945Z,97835.22
2022-09-27T21:33:39.041Z,97840.38
2022-09-27T21:36:10.411Z,97882.88
2022-09-27T21:38:40.503Z,97684.25
2022-09-27T21:41:09.554Z,97618.22
2022-09-27T21:43:42.854Z,97732.78
2022-09-27T21:46:12.032Z,97939.66
2022-09-27T21:48:42.701Z,97720.66
2022-09-27T21:51:12.335Z,97579.38
2022-09-27T21:53:43.631Z,97839.25
2022-09-27T21:56:12.106Z,97917.16
2022-09-27T21:58:41.677Z,97729.94
2022-09-27T22:01:10.814Z,97609.84
2022-09-27T22:03:39.623Z,97743.91
2022-09-27T22:06:10.804Z,97800.97
2022-09-27T22:08:39.325Z,97662.69
2022-09-27T22:11:07.716Z,97982.28
2022-09-27T22:13:35.974Z,97567.72
2022-09-27T22:16:05.249Z,97653.56
2022-09-27T22:18:35.317Z,97990.81
2022-09-27T22:21:04.699Z,97793.19
2022-09-27T22:23:35.739Z,97741.28
2022-09-27T22:26:13.075Z,97455.44
2022-09-27T22:28:41.529Z,97265.06
2022-09-27T22:31:15.287Z,97563.69
2022-09-27T22:33:43.853Z,97567.81
2022-09-27T22:36:12.244Z,97503.25
2022-09-27T22:38:41.872Z,97666.63
2022-09-27T22:41:13.544Z,97778.06
2022-09-27T22:43:41.358Z,97773.78
2022-09-27T22:46:09.293Z,97770.50
2022-09-27T22:48:37.450Z,97824.16
2022-09-27T22:51:05.227Z,97776.41
2022-09-27T22:53:32.981Z,97732.56
2022-09-27T22:56:04.753Z,97835.59
2022-09-27T22:58:32.687Z,97845.59
2022-09-27T23:01:00.522Z,97737.88
2022-09-27T23:03:28.286Z,97676.66
2022-09-27T23:05:55.982Z,97651.69
2022-09-27T23:08:23.763Z,97846.09
2022-09-27T23:10:51.374Z,97753.91
2022-09-27T23:13:20.547Z,97735.56
2022-09-27T23:15:48.291Z,97781.59
2022-09-27T23:18:15.994Z,97833.84
2022-09-27T23:20:44.896Z,97843.13
2022-09-27T23:23:14.063Z,97793.69
2022-09-27T23:25:41.801Z,97750.66
2022-09-27T23:28:09.457Z,97925.19
2022-09-27T23:30:38.753Z,97680.00
2022-09-27T23:33:06.454Z,97711.47
2022-09-27T23:35:34.169Z,97563.38
2022-09-27T23:38:01.933Z,97495.31
2022-09-27T23:40:30.041Z,97689.31
2022-09-27T23:43:00.794Z,97769.53
2022-09-27T23:45:28.598Z,97722.38
2022-09-27T23:47:57.974Z,97700.94
2022-09-27T23:50:26.101Z,97419.53
2022-09-27T23:52:53.873Z,97750.66
2022-09-27T23:55:21.629Z,97649.38
2022-09-27T23:57:49.348Z,97470.22
